createdAt,value
2022-11-22T00:01:24.621Z,7.00
2022-11-22T00:04:14.316Z,6.00
2022-11-22T00:07:02.434Z,6.00
2022-11-22T00:09:50.410Z,6.00
2022-11-22T00:12:37.768Z,5.90
2022-11-22T00:15:25.819Z,5.90
2022-11-22T00:18:13.306Z,5.90
2022-11-22T00:21:07.387Z,5.90
2022-11-22T00:23:57.100Z,5.90
2022-11-22T00:26:44.476Z,5.80
2022-11-22T00:29:31.769Z,5.80
2022-11-22T00:32:19.404Z,6.30
2022-11-22T00:35:08.423Z,5.70
2022-11-22T00:37:57.305Z,5.70
2022-11-22T00:40:45.250Z,5.70
2022-11-22T00:43:33.096Z,5.70
2022-11-22T00:46:21.133Z,5.60
2022-11-22T00:49:09.315Z,5.60
2022-11-22T00:51:56.671Z,5.50
2022-11-22T00:54:53.033Z,5.50
2022-11-22T00:57:42.788Z,5.70
2022-11-22T01:00:30.463Z,5.50
2022-11-22T01:03:17.886Z,5.40
2022-11-22T01:06:06.261Z,5.40
2022-11-22T01:08:54.592Z,5.40
2022-11-22T01:11:44.340Z,5.30
2022-11-22T01:14:34.834Z,5.50
2022-11-22T01:17:22.721Z,5.30
2022-11-22T01:20:11.648Z,5.20
2022-11-22T01:22:59.292Z,5.30
2022-11-22T01:25:46.567Z,5.20
2022-11-22T01:28:36.609Z,5.20
2022-11-22T01:31:24.023Z,5.20
2022-11-22T01:34:11.426Z,5.10
2022-11-22T01:36:58.642Z,5.20
2022-11-22T01:39:45.839Z,5.20
2022-11-22T01:42:47.440Z,5.10
2022-11-22T01:45:45.014Z,5.10
2022-11-22T01:48:56.429Z,5.10
2022-11-22T01:51:46.982Z,5.00
2022-11-22T01:54:37.296Z,5.00
2022-11-22T01:57:27.432Z,5.10
2022-11-22T02:00:20.738Z,5.00
2022-11-22T02:03:11.627Z,5.00
2022-11-22T02:06:00.104Z,4.90
2022-11-22T02:08:51.834Z,4.90
2022-11-22T02:11:41.347Z,4.90
2022-11-22T02:14:28.997Z,4.80
2022-11-22T02:17:16.994Z,4.70
2022-11-22T02:20:05.837Z,4.80
2022-11-22T02:22:56.858Z,4.70
2022-11-22T02:25:50.746Z,4.70
2022-11-22T02:28:38.921Z,4.70
2022-11-22T02:31:47.658Z,4.70
2022-11-22T02:34:42.389Z,4.60
2022-11-22T02:37:32.880Z,4.60
2022-11-22T02:40:21.720Z,4.50
2022-11-22T02:43:12.689Z,4.50
2022-11-22T02:46:05.057Z,3.50
2022-11-22T02:48:52.306Z,4.40
2022-11-22T02:51:40.107Z,4.40
2022-11-22T02:54:27.678Z,4.40
2022-11-22T02:57:14.934Z,4.40
2022-11-22T03:00:03.747Z,4.30
2022-11-22T03:02:51.177Z,4.30
2022-11-22T03:05:38.468Z,4.30
2022-11-22T03:08:25.831Z,4.20
2022-11-22T03:11:13.490Z,4.20
2022-11-22T03:14:01.275Z,4.10
2022-11-22T03:16:50.277Z,5.40
2022-11-22T03:19:38.301Z,4.20
2022-11-22T03:22:26.019Z,4.20
2022-11-22T03:25:13.572Z,4.20
2022-11-22T03:28:00.747Z,4.10
2022-11-22T03:30:47.863Z,4.10
2022-11-22T03:33:37.017Z,4.10
2022-11-22T03:36:25.010Z,4.10
2022-11-22T03:39:12.546Z,4.10
2022-11-22T03:42:00.555Z,4.00
2022-11-22T03:44:48.254Z,4.00
2022-11-22T03:47:35.823Z,4.00
2022-11-22T03:50:24.580Z,4.10
2022-11-22T03:53:12.350Z,4.00
2022-11-22T03:56:00.106Z,4.00
2022-11-22T03:58:47.534Z,4.00
2022-11-22T04:01:35.355Z,4.00
2022-11-22T04:04:22.569Z,4.00
2022-11-22T04:07:11.427Z,4.00
2022-11-22T04:09:58.938Z,5.10
2022-11-22T04:12:49.680Z,4.00
2022-11-22T04:15:36.956Z,4.30
2022-11-22T04:18:24.609Z,4.00
2022-11-22T04:21:29.817Z,4.00
2022-11-22T04:24:35.912Z,3.90
2022-11-22T04:27:23.459Z,4.00
2022-11-22T04:30:14.848Z,3.90
2022-11-22T04:33:05.260Z,3.90
2022-11-22T04:35:52.455Z,3.90
2022-11-22T04:38:40.008Z,3.90
2022-11-22T04:41:29.202Z,4.50
2022-11-22T04:44:33.994Z,6.00
2022-11-22T04:47:53.954Z,3.80
2022-11-22T04:50:59.865Z,3.80
2022-11-22T04:53:47.977Z,3.80
2022-11-22T04:56:36.862Z,3.80
2022-11-22T04:59:24.991Z,3.80
2022-11-22T05:02:12.462Z,3.70
2022-11-22T05:05:00.501Z,3.70
2022-11-22T05:07:48.189Z,3.70
2022-11-22T05:10:49.495Z,3.70
2022-11-22T05:13:39.069Z,3.70
2022-11-22T05:16:26.334Z,3.30
2022-11-22T05:19:14.389Z,3.50
2022-11-22T05:22:02.505Z,3.70
2022-11-22T05:24:48.518Z,3.70
2022-11-22T05:27:36.265Z,3.60
2022-11-22T05:30:25.251Z,3.50
2022-11-22T05:33:15.850Z,3.50
2022-11-22T05:36:03.213Z,3.50
2022-11-22T05:38:51.185Z,3.50
2022-11-22T05:41:39.586Z,3.50
2022-11-22T05:44:27.887Z,3.30
2022-11-22T05:47:16.674Z,3.30
2022-11-22T05:50:04.903Z,3.30
2022-11-22T05:52:52.225Z,3.30
2022-11-22T05:55:39.315Z,3.30
2022-11-22T05:58:27.153Z,3.30
2022-11-22T06:01:18.809Z,3.20
2022-11-22T06:04:07.471Z,3.20
2022-11-22T06:06:55.095Z,3.40
2022-11-22T06:09:43.003Z,3.50
2022-11-22T06:12:31.064Z,1.70
2022-11-22T06:15:18.804Z,3.70
2022-11-22T06:18:06.293Z,3.90
2022-11-22T06:20:57.427Z,4.00
2022-11-22T06:23:45.722Z,4.20
2022-11-22T06:26:37.740Z,4.30
2022-11-22T06:29:26.845Z,4.40
2022-11-22T06:32:15.054Z,4.40
2022-11-22T06:35:02.683Z,4.50
2022-11-22T06:37:56.086Z,4.60
2022-11-22T06:40:46.694Z,4.60
2022-11-22T06:43:35.821Z,4.70
2022-11-22T06:46:23.936Z,4.80
2022-11-22T06:49:10.972Z,4.20
2022-11-22T06:51:58.135Z,4.80
2022-11-22T06:54:46.786Z,4.90
2022-11-22T06:57:34.668Z,4.90
2022-11-22T07:00:21.878Z,5.00
2022-11-22T07:03:09.143Z,5.00
2022-11-22T07:05:56.640Z,5.00
2022-11-22T07:08:44.500Z,5.10
2022-11-22T07:11:33.325Z,5.10
2022-11-22T07:14:20.977Z,5.20
2022-11-22T07:17:08.499Z,5.10
2022-11-22T07:19:56.309Z,5.20
2022-11-22T07:22:43.505Z,5.20
2022-11-22T07:25:31.382Z,5.20
2022-11-22T07:28:20.721Z,5.20
2022-11-22T07:31:09.516Z,5.20
2022-11-22T07:33:58.615Z,5.30
2022-11-22T07:36:45.981Z,5.30
2022-11-22T07:39:33.647Z,5.30
2022-11-22T07:42:25.322Z,5.30
2022-11-22T07:45:15.360Z,5.30
2022-11-22T07:48:02.826Z,5.40
2022-11-22T07:50:50.011Z,5.40
2022-11-22T07:53:37.282Z,5.40
2022-11-22T07:56:24.434Z,5.50
2022-11-22T07:59:11.480Z,5.50
2022-11-22T08:02:00.818Z,5.50
2022-11-22T08:04:48.037Z,5.50
2022-11-22T08:07:35.223Z,5.50
2022-11-22T08:10:23.309Z,5.50
2022-11-22T08:13:10.518Z,5.50
2022-11-22T08:16:05.696Z,5.50
2022-11-22T08:18:55.090Z,5.50
2022-11-22T08:21:42.193Z,5.50
2022-11-22T08:24:30.074Z,5.50
2022-11-22T08:27:17.982Z,5.50
2022-11-22T08:30:05.557Z,5.60
2022-11-22T08:32:55.435Z,5.60
2022-11-22T08:35:44.789Z,5.60
2022-11-22T08:38:31.793Z,5.60
2022-11-22T08:41:19.396Z,5.60
2022-11-22T08:44:06.938Z,5.60
2022-11-22T08:46:54.832Z,5.60
2022-11-22T08:49:42.338Z,5.60
2022-11-22T08:52:31.051Z,5.60
2022-11-22T08:55:18.836Z,5.60
2022-11-22T08:58:06.524Z,5.70
2022-11-22T09:00:53.801Z,5.70
2022-11-22T09:03:41.614Z,5.70
2022-11-22T09:09:38.484Z,5.80
2022-11-22T09:12:26.631Z,5.80
2022-11-22T09:15:15.834Z,5.80
2022-11-22T09:18:03.666Z,5.80
2022-11-22T09:20:58.764Z,5.90
2022-11-22T09:23:47.447Z,5.90
2022-11-22T09:26:36.469Z,6.00
2022-11-22T09:29:25.436Z,6.00
2022-11-22T09:32:12.751Z,6.00
2022-11-22T09:34:59.871Z,6.00
2022-11-22T09:37:48.061Z,6.10
2022-11-22T09:40:37.376Z,6.10
2022-11-22T09:43:30.052Z,6.20
2022-11-22T09:46:26.622Z,5.70
2022-11-22T09:49:30.185Z,6.20
2022-11-22T09:52:24.876Z,6.20
2022-11-22T09:55:17.710Z,6.20
2022-11-22T09:58:12.124Z,6.20
2022-11-22T10:01:03.462Z,6.20
2022-11-22T10:03:53.443Z,6.30
2022-11-22T10:06:42.003Z,6.40
2022-11-22T10:09:35.356Z,6.40
2022-11-22T10:12:26.263Z,6.40
2022-11-22T10:15:17.832Z,6.40
2022-11-22T10:18:12.727Z,6.40
2022-11-22T10:21:00.304Z,6.50
2022-11-22T10:23:48.616Z,6.50
2022-11-22T10:26:36.458Z,6.50
2022-11-22T10:29:28.679Z,6.60
2022-11-22T10:32:21.645Z,6.70
2022-11-22T10:35:19.594Z,6.70
2022-11-22T10:38:24.200Z,6.80
2022-11-22T10:41:19.655Z,6.90
2022-11-22T10:44:15.957Z,7.00
2022-11-22T10:47:08.484Z,7.10
2022-11-22T10:49:58.732Z,7.20
2022-11-22T10:52:50.639Z,7.20
2022-11-22T10:55:50.272Z,7.20
2022-11-22T10:58:41.961Z,7.30
2022-11-22T11:01:32.978Z,7.30
2022-11-22T11:04:21.416Z,7.30
2022-11-22T11:07:13.186Z,7.60
2022-11-22T11:10:14.701Z,7.80
2022-11-22T11:13:08.168Z,8.10
2022-11-22T11:15:56.694Z,8.20
2022-11-22T11:18:47.678Z,8.30
2022-11-22T11:21:35.495Z,8.30
2022-11-22T11:24:22.942Z,8.20
2022-11-22T11:27:12.892Z,8.10
2022-11-22T11:30:01.842Z,8.00
2022-11-22T11:32:53.528Z,7.90
2022-11-22T11:35:42.366Z,7.90
2022-11-22T11:38:32.202Z,7.90
2022-11-22T11:41:26.748Z,7.80
2022-11-22T11:44:28.484Z,7.80
2022-11-22T11:47:19.377Z,7.70
2022-11-22T11:50:23.551Z,7.60
2022-11-22T11:53:17.822Z,7.50
2022-11-22T11:56:21.712Z,7.50
2022-11-22T11:59:12.787Z,7.50
2022-11-22T12:02:03.853Z,7.40
2022-11-22T12:04:53.381Z,7.40
2022-11-22T12:07:43.856Z,7.40
2022-11-22T12:10:33.143Z,7.40
2022-11-22T12:13:24.686Z,7.40
2022-11-22T12:16:15.584Z,7.40
2022-11-22T12:19:11.125Z,7.40
2022-11-22T12:22:02.946Z,7.40
2022-11-22T12:25:24.321Z,7.50
2022-11-22T12:28:04.556Z,7.60
2022-11-22T12:30:55.258Z,7.70
2022-11-22T12:33:43.291Z,7.80
2022-11-22T12:36:36.295Z,7.80
2022-11-22T12:39:26.190Z,8.10
2022-11-22T12:42:20.039Z,7.90
2022-11-22T12:45:13.192Z,7.90
2022-11-22T12:48:02.045Z,7.90
2022-11-22T12:50:51.470Z,8.00
2022-11-22T12:53:42.787Z,8.00
2022-11-22T12:56:33.931Z,8.00
2022-11-22T12:59:30.707Z,9.00
2022-11-22T13:02:21.102Z,7.90
2022-11-22T13:05:13.562Z,7.90
2022-11-22T13:08:05.164Z,7.80
2022-11-22T13:10:56.354Z,7.80
2022-11-22T13:13:45.145Z,7.80
2022-11-22T13:16:32.753Z,7.80
2022-11-22T13:19:21.531Z,7.90
2022-11-22T13:22:12.577Z,7.90
2022-11-22T13:25:06.635Z,7.80
2022-11-22T13:27:58.983Z,7.80
2022-11-22T13:31:01.160Z,7.70
2022-11-22T13:33:56.371Z,7.70
2022-11-22T13:36:43.667Z,7.60
2022-11-22T13:39:31.122Z,7.50
2022-11-22T13:42:19.322Z,7.60
2022-11-22T13:45:13.705Z,7.60
2022-11-22T13:48:03.814Z,7.50
2022-11-22T13:51:06.205Z,7.50
2022-11-22T13:54:13.982Z,7.60
2022-11-22T13:57:02.741Z,7.70
2022-11-22T14:00:12.478Z,7.80
2022-11-22T14:03:14.290Z,7.80
2022-11-22T14:06:15.028Z,7.90
2022-11-22T14:09:33.668Z,7.90
2022-11-22T14:12:35.871Z,8.00
2022-11-22T14:15:39.465Z,8.00
2022-11-22T14:18:45.422Z,8.00
2022-11-22T14:21:47.292Z,7.90
2022-11-22T14:24:46.246Z,8.00
2022-11-22T14:27:39.605Z,8.00
2022-11-22T14:30:38.830Z,8.10
2022-11-22T14:33:28.664Z,8.20
2022-11-22T14:36:17.404Z,8.20
2022-11-22T14:39:30.748Z,8.30
2022-11-22T14:42:48.396Z,8.30
2022-11-22T14:45:42.625Z,8.30
2022-11-22T14:48:32.538Z,8.30
2022-11-22T14:51:27.842Z,8.20
2022-11-22T14:54:23.630Z,8.30
2022-11-22T14:57:16.729Z,8.20
2022-11-22T15:00:08.963Z,8.30
2022-11-22T15:03:12.321Z,8.30
2022-11-22T15:09:11.862Z,8.40
2022-11-22T15:09:53.336Z,8.40
2022-11-22T15:12:50.497Z,8.40
2022-11-22T16:00:00.413Z,8.30
2022-11-22T16:02:49.827Z,8.30
2022-11-22T16:06:10.197Z,8.10
2022-11-22T16:08:49.734Z,8.10
2022-11-22T16:11:38.694Z,8.10
2022-11-22T16:14:45.429Z,8.10
2022-11-22T16:17:39.065Z,8.10
2022-11-22T16:20:35.359Z,7.90
2022-11-22T16:23:27.843Z,8.00
2022-11-22T16:26:24.976Z,8.10
2022-11-22T16:29:26.058Z,8.10
2022-11-22T16:32:16.581Z,8.10
2022-11-22T16:35:28.592Z,8.10
2022-11-22T16:38:19.771Z,8.20
2022-11-22T16:41:14.183Z,8.20
2022-11-22T16:44:05.194Z,8.20
2022-11-22T16:46:53.268Z,8.20
2022-11-22T16:49:41.099Z,8.20
2022-11-22T16:52:30.184Z,8.30
2022-11-22T16:55:18.779Z,8.30
2022-11-22T16:58:16.951Z,8.40
2022-11-22T17:01:04.749Z,8.50
2022-11-22T17:03:57.266Z,8.40
2022-11-22T17:06:44.843Z,8.40
2022-11-22T17:09:34.532Z,8.40
2022-11-22T17:12:30.471Z,7.60
2022-11-22T17:15:24.791Z,8.50
2022-11-22T17:18:13.345Z,8.60
2022-11-22T17:21:05.915Z,8.60
2022-11-22T17:24:00.555Z,8.60
2022-11-22T17:26:49.952Z,8.70
2022-11-22T17:29:52.887Z,8.70
2022-11-22T17:32:40.655Z,8.70
2022-11-22T17:35:32.179Z,8.80
2022-11-22T17:38:23.571Z,8.80
2022-11-22T17:41:10.729Z,8.80
2022-11-22T17:44:00.393Z,8.70
2022-11-22T17:46:48.324Z,8.70
2022-11-22T17:49:36.322Z,8.80
2022-11-22T17:52:23.467Z,8.80
2022-11-22T17:55:14.350Z,8.80
2022-11-22T17:58:02.462Z,8.80
2022-11-22T18:00:51.257Z,8.80
2022-11-22T18:03:40.193Z,8.70
2022-11-22T18:06:29.141Z,8.80
2022-11-22T18:09:19.664Z,8.90
2022-11-22T18:12:07.470Z,8.90
2022-11-22T18:14:55.597Z,8.90
2022-11-22T18:17:44.225Z,8.80
2022-11-22T18:20:31.245Z,8.70
2022-11-22T18:23:19.580Z,8.70
2022-11-22T18:26:31.852Z,8.60
2022-11-22T18:32:23.018Z,8.60
2022-11-22T18:35:11.771Z,8.50
2022-11-22T18:37:59.028Z,8.50
2022-11-22T18:40:46.763Z,8.40
2022-11-22T18:43:34.297Z,8.30
2022-11-22T18:46:22.380Z,8.20
2022-11-22T18:49:10.193Z,8.70
2022-11-22T18:52:00.132Z,8.10
2022-11-22T18:54:47.567Z,8.10
2022-11-22T18:57:35.474Z,8.10
2022-11-22T19:00:23.029Z,8.00
2022-11-22T19:03:11.968Z,8.00
2022-11-22T19:05:59.377Z,8.00
2022-11-22T19:08:49.070Z,8.00
2022-11-22T19:11:36.384Z,8.00
2022-11-22T19:14:24.291Z,8.00
2022-11-22T19:17:11.903Z,8.00
2022-11-22T19:20:02.631Z,8.00
2022-11-22T19:22:56.711Z,8.00
2022-11-22T19:25:46.231Z,8.00
2022-11-22T19:28:36.469Z,8.00
2022-11-22T19:31:24.877Z,8.00
2022-11-22T19:34:12.642Z,8.00
2022-11-22T19:37:00.541Z,8.00
2022-11-22T19:39:49.208Z,8.00
2022-11-22T19:42:40.173Z,8.00
2022-11-22T19:45:28.413Z,7.90
2022-11-22T19:48:18.750Z,7.90
2022-11-22T19:51:14.270Z,7.90
2022-11-22T19:54:03.222Z,8.00
2022-11-22T19:56:50.428Z,7.80
2022-11-22T19:59:39.717Z,7.80
2022-11-22T20:02:27.381Z,7.80
2022-11-22T20:05:18.268Z,7.80
2022-11-22T20:08:05.867Z,8.00
2022-11-22T20:10:53.396Z,7.80
2022-11-22T20:13:42.726Z,7.90
2022-11-22T20:16:32.199Z,7.80
2022-11-22T20:19:20.574Z,7.80
2022-11-22T20:22:07.779Z,7.90
2022-11-22T20:24:57.219Z,7.80
2022-11-22T20:27:44.918Z,8.10
2022-11-22T20:30:32.338Z,7.90
2022-11-22T20:33:21.248Z,7.90
2022-11-22T20:36:09.780Z,7.90
2022-11-22T20:38:58.042Z,7.90
2022-11-22T20:41:45.673Z,7.90
2022-11-22T20:44:34.179Z,7.90
2022-11-22T20:47:22.473Z,7.90
2022-11-22T20:50:11.638Z,7.90
2022-11-22T20:52:59.298Z,7.90
2022-11-22T20:55:47.024Z,7.90
2022-11-22T20:58:35.443Z,7.80
2022-11-22T21:01:24.482Z,7.90
2022-11-22T21:04:12.701Z,7.90
2022-11-22T21:07:01.264Z,7.90
2022-11-22T21:09:48.312Z,7.80
2022-11-22T21:12:35.793Z,7.90
2022-11-22T21:15:27.969Z,7.90
2022-11-22T21:18:31.187Z,7.80
2022-11-22T21:21:22.753Z,7.90
2022-11-22T21:24:13.809Z,7.90
2022-11-22T21:27:01.537Z,7.90
2022-11-22T21:29:48.908Z,7.90
2022-11-22T21:32:36.363Z,7.90
2022-11-22T21:35:24.231Z,7.90
2022-11-22T21:38:11.834Z,7.90
2022-11-22T21:41:17.154Z,7.90
2022-11-22T21:44:09.307Z,7.90
2022-11-22T21:46:57.512Z,7.90
2022-11-22T21:49:47.355Z,7.90
2022-11-22T21:52:36.009Z,7.90
2022-11-22T21:55:23.234Z,7.90
2022-11-22T21:58:12.267Z,7.90
2022-11-22T22:01:03.833Z,7.90
2022-11-22T22:03:52.414Z,7.90
2022-11-22T22:06:43.527Z,7.90
2022-11-22T22:09:34.011Z,7.90
2022-11-22T22:12:27.395Z,7.90
2022-11-22T22:15:16.612Z,7.90
2022-11-22T22:18:04.559Z,8.20
2022-11-22T22:20:59.305Z,7.90
2022-11-22T22:23:46.867Z,7.90
2022-11-22T22:26:34.542Z,7.90
2022-11-22T22:29:22.629Z,7.90
2022-11-22T22:32:11.983Z,7.90
2022-11-22T22:35:00.006Z,7.90
2022-11-22T22:37:48.124Z,7.90
2022-11-22T22:40:35.774Z,7.90
2022-11-22T22:43:24.259Z,7.90
2022-11-22T22:46:13.008Z,7.80
2022-11-22T22:49:01.643Z,7.90
2022-11-22T22:51:51.501Z,7.80
2022-11-22T22:54:41.747Z,8.30
2022-11-22T22:57:28.977Z,8.00
2022-11-22T23:00:18.374Z,7.80
2022-11-22T23:03:06.030Z,7.80
2022-11-22T23:05:55.835Z,7.90
2022-11-22T23:08:45.411Z,8.00
2022-11-22T23:11:50.942Z,7.90
2022-11-22T23:14:39.745Z,7.80
2022-11-22T23:17:27.687Z,7.80
2022-11-22T23:20:15.615Z,7.70
2022-11-22T23:23:06.418Z,8.90
2022-11-22T23:25:54.578Z,7.90
2022-11-22T23:28:42.456Z,7.90
2022-11-22T23:31:30.351Z,8.00
2022-11-22T23:34:18.134Z,8.10
2022-11-22T23:37:08.152Z,8.10
2022-11-22T23:39:57.663Z,8.20
2022-11-22T23:42:45.718Z,8.20
2022-11-22T23:45:34.319Z,8.10
2022-11-22T23:48:22.322Z,8.20
2022-11-22T23:51:10.518Z,8.20
2022-11-22T23:53:57.989Z,8.20
2022-11-22T23:56:46.884Z,8.20
2022-11-22T23:59:34.968Z,8.30
